createdAt,value
2018-08-31T00:00:17.237Z,99.90
2018-08-31T00:02:53.814Z,99.90
2018-08-31T00:05:48.501Z,99.90
2018-08-31T00:10:34.115Z,99.90
2018-08-31T00:16:00.319Z,99.90
2018-08-31T00:18:34.339Z,99.90
2018-08-31T00:21:05.020Z,99.90
2018-08-31T00:23:46.928Z,99.90
2018-08-31T00:26:27.664Z,99.90
2018-08-31T00:29:11.842Z,99.90
2018-08-31T00:32:04.945Z,99.90
2018-08-31T00:37:47.580Z,99.90
2018-08-31T00:40:29.365Z,99.90
2018-08-31T00:45:13.946Z,99.90
2018-08-31T00:47:46.216Z,99.90
2018-08-31T00:51:11.672Z,99.90
2018-08-31T00:54:08.305Z,99.90
2018-08-31T00:56:38.001Z,99.90
2018-08-31T00:59:13.852Z,99.90
2018-08-31T01:01:43.083Z,99.90
2018-08-31T01:04:19.845Z,99.90
2018-08-31T01:06:49.432Z,99.90
2018-08-31T01:09:19.648Z,99.90
2018-08-31T01:11:49.084Z,99.90
2018-08-31T01:14:19.419Z,99.90
2018-08-31T01:16:50.337Z,99.90
2018-08-31T01:19:19.581Z,99.90
2018-08-31T01:21:49.035Z,99.90
2018-08-31T01:24:18.205Z,99.90
2018-08-31T01:26:48.464Z,99.90
2018-08-31T01:29:17.850Z,99.90
2018-08-31T01:31:52.009Z,99.90
2018-08-31T01:34:23.974Z,99.90
2018-08-31T01:36:56.321Z,99.90
2018-08-31T01:39:26.911Z,99.90
2018-08-31T01:42:21.874Z,99.90
2018-08-31T01:45:03.048Z,99.90
2018-08-31T01:47:48.837Z,99.90
2018-08-31T01:50:21.566Z,99.90
2018-08-31T01:52:50.859Z,99.90
2018-08-31T01:55:24.258Z,99.90
2018-08-31T01:57:53.485Z,99.90
2018-08-31T02:00:23.225Z,99.90
2018-08-31T02:02:52.443Z,99.90
2018-08-31T02:05:21.841Z,99.90
2018-08-31T02:07:51.367Z,99.90
2018-08-31T02:10:21.238Z,99.90
2018-08-31T02:12:51.223Z,99.90
2018-08-31T02:15:21.065Z,99.90
2018-08-31T02:17:50.252Z,99.90
2018-08-31T02:20:25.318Z,99.90
2018-08-31T02:22:55.055Z,99.90
2018-08-31T02:25:24.337Z,99.90
2018-08-31T02:27:53.574Z,99.90
2018-08-31T02:30:23.202Z,99.90
2018-08-31T02:32:52.487Z,99.90
2018-08-31T02:35:22.723Z,99.90
2018-08-31T02:37:51.868Z,99.90
2018-08-31T02:40:21.080Z,99.90
2018-08-31T02:42:50.246Z,99.90
2018-08-31T02:45:19.409Z,99.90
2018-08-31T02:47:49.654Z,99.90
2018-08-31T02:50:18.925Z,99.90
2018-08-31T02:52:49.135Z,99.90
2018-08-31T02:55:18.413Z,99.90
2018-08-31T02:57:49.437Z,99.90
2018-08-31T03:00:18.623Z,99.90
2018-08-31T03:02:48.190Z,99.90
2018-08-31T03:05:17.392Z,99.90
2018-08-31T03:07:46.611Z,99.90
2018-08-31T03:10:15.813Z,99.90
2018-08-31T03:12:45.005Z,99.90
2018-08-31T03:15:14.382Z,99.90
2018-08-31T03:17:43.914Z,99.90
2018-08-31T03:20:13.282Z,99.90
2018-08-31T03:22:42.697Z,99.90
2018-08-31T03:25:13.896Z,99.90
2018-08-31T03:27:43.421Z,99.90
2018-08-31T03:30:13.044Z,99.90
2018-08-31T03:32:42.311Z,99.90
2018-08-31T03:35:11.578Z,99.90
2018-08-31T03:37:40.802Z,99.90
2018-08-31T03:40:10.224Z,99.90
2018-08-31T03:42:39.973Z,99.90
2018-08-31T03:45:10.213Z,99.90
2018-08-31T03:47:39.566Z,99.90
2018-08-31T03:50:08.869Z,99.90
2018-08-31T03:52:38.282Z,99.90
2018-08-31T03:55:08.899Z,99.90
2018-08-31T03:57:38.731Z,99.90
2018-08-31T04:00:08.819Z,99.90
2018-08-31T04:02:38.333Z,99.90
2018-08-31T04:05:10.002Z,99.90
2018-08-31T04:07:39.147Z,99.90
2018-08-31T04:10:14.442Z,99.90
2018-08-31T04:12:52.427Z,99.90
2018-08-31T04:15:22.270Z,99.90
2018-08-31T04:17:51.561Z,99.90
2018-08-31T04:20:20.880Z,99.90
2018-08-31T04:22:50.543Z,99.90
2018-08-31T04:25:19.996Z,99.90
2018-08-31T04:27:49.160Z,99.90
2018-08-31T04:30:18.316Z,99.90
2018-08-31T04:32:47.508Z,99.90
2018-08-31T04:35:16.773Z,99.90
2018-08-31T04:37:47.578Z,99.90
2018-08-31T04:40:17.180Z,99.90
2018-08-31T04:42:46.391Z,99.90
2018-08-31T04:45:15.997Z,99.90
2018-08-31T04:47:45.896Z,99.90
2018-08-31T04:50:15.706Z,99.90
2018-08-31T04:52:46.155Z,99.90
2018-08-31T04:55:16.085Z,99.90
2018-08-31T04:57:45.288Z,99.90
2018-08-31T05:00:14.769Z,99.90
2018-08-31T05:02:44.011Z,99.90
2018-08-31T05:05:13.422Z,99.90
2018-08-31T05:07:43.787Z,99.90
2018-08-31T05:10:16.085Z,99.90
2018-08-31T05:12:45.349Z,99.90
2018-08-31T05:15:14.975Z,99.90
2018-08-31T05:17:58.478Z,99.90
2018-08-31T05:20:28.155Z,99.90
2018-08-31T05:22:57.437Z,99.90
2018-08-31T05:25:26.984Z,99.90
2018-08-31T05:27:58.414Z,99.90
2018-08-31T05:30:27.927Z,99.90
2018-08-31T05:32:57.333Z,99.90
2018-08-31T05:35:26.955Z,99.90
2018-08-31T05:37:56.312Z,99.90
2018-08-31T05:40:27.318Z,99.90
2018-08-31T05:42:59.594Z,99.90
2018-08-31T05:45:32.852Z,99.90
2018-08-31T05:48:02.803Z,99.90
2018-08-31T05:50:32.342Z,99.90
2018-08-31T05:53:08.355Z,99.90
2018-08-31T05:55:38.753Z,99.90
2018-08-31T05:58:08.134Z,99.90
2018-08-31T06:00:44.086Z,99.90
2018-08-31T06:03:13.695Z,99.90
2018-08-31T06:05:43.028Z,99.90
2018-08-31T06:08:12.264Z,99.90
2018-08-31T06:10:49.108Z,99.90
2018-08-31T06:13:22.377Z,99.90
2018-08-31T06:15:57.688Z,99.90
2018-08-31T06:18:31.007Z,99.90
2018-08-31T06:21:06.200Z,99.90
2018-08-31T06:23:35.776Z,99.90
2018-08-31T06:26:05.725Z,99.90
2018-08-31T06:28:36.801Z,99.90
2018-08-31T06:31:11.844Z,99.90
2018-08-31T06:33:46.667Z,99.90
2018-08-31T06:36:18.303Z,99.90
2018-08-31T06:38:48.338Z,99.90
2018-08-31T06:41:20.849Z,99.90
2018-08-31T06:43:50.290Z,99.90
2018-08-31T06:46:24.828Z,99.90
2018-08-31T06:48:56.390Z,99.90
2018-08-31T06:51:36.654Z,99.90
2018-08-31T06:54:06.355Z,99.90
2018-08-31T06:56:36.428Z,99.90
2018-08-31T06:59:10.586Z,99.90
2018-08-31T07:01:49.697Z,99.90
2018-08-31T07:04:19.669Z,99.90
2018-08-31T07:06:51.956Z,99.90
2018-08-31T07:09:21.817Z,99.90
2018-08-31T07:11:56.859Z,99.90
2018-08-31T07:14:50.352Z,99.90
2018-08-31T07:17:29.446Z,99.90
2018-08-31T07:20:00.847Z,99.90
2018-08-31T07:22:30.280Z,99.90
2018-08-31T07:25:00.079Z,99.90
2018-08-31T07:27:30.656Z,99.90
2018-08-31T07:30:01.624Z,99.90
2018-08-31T07:32:31.230Z,99.90
2018-08-31T07:35:04.235Z,99.90
2018-08-31T07:37:33.693Z,99.90
2018-08-31T07:40:08.290Z,99.90
2018-08-31T07:42:38.464Z,99.90
2018-08-31T07:45:08.700Z,99.90
2018-08-31T07:47:44.952Z,99.90
2018-08-31T07:50:15.472Z,99.90
2018-08-31T07:52:47.831Z,99.90
2018-08-31T07:55:18.659Z,99.90
2018-08-31T07:57:50.776Z,99.90
2018-08-31T08:00:30.653Z,99.90
2018-08-31T08:03:00.221Z,99.90
2018-08-31T08:05:30.106Z,99.90
2018-08-31T08:07:59.745Z,99.10
2018-08-31T08:10:29.833Z,99.00
2018-08-31T08:12:59.282Z,99.20
2018-08-31T08:15:29.834Z,98.90
2018-08-31T08:17:59.522Z,99.20
2018-08-31T08:20:42.724Z,99.60
2018-08-31T08:23:12.805Z,99.60
2018-08-31T08:25:42.474Z,98.80
2018-08-31T08:28:14.816Z,96.10
2018-08-31T08:30:45.280Z,95.50
2018-08-31T08:33:17.318Z,95.10
2018-08-31T08:35:47.631Z,94.70
2018-08-31T08:38:17.948Z,94.50
2018-08-31T08:40:49.183Z,93.50
2018-08-31T08:43:20.968Z,93.00
2018-08-31T08:45:50.695Z,92.60
2018-08-31T08:48:25.607Z,92.00
2018-08-31T08:50:55.801Z,91.90
2018-08-31T08:53:25.334Z,91.70
2018-08-31T08:55:55.763Z,91.40
2018-08-31T08:58:25.966Z,92.00
2018-08-31T09:00:56.645Z,91.60
2018-08-31T09:03:26.186Z,90.10
2018-08-31T09:05:58.832Z,86.20
2018-08-31T09:08:29.345Z,88.10
2018-08-31T09:11:00.651Z,79.60
2018-08-31T09:13:31.709Z,79.50
2018-08-31T09:16:02.203Z,77.30
2018-08-31T09:18:31.996Z,77.10
2018-08-31T09:21:07.435Z,81.00
2018-08-31T09:23:38.630Z,76.50
2018-08-31T09:26:11.713Z,74.30
2018-08-31T09:28:42.063Z,72.90
2018-08-31T09:31:16.160Z,71.50
2018-08-31T09:33:47.205Z,67.40
2018-08-31T09:36:24.611Z,65.90
2018-08-31T09:38:56.203Z,66.60
2018-08-31T09:41:32.115Z,62.50
2018-08-31T09:44:05.512Z,58.50
2018-08-31T09:46:35.762Z,56.40
2018-08-31T09:49:06.784Z,57.20
2018-08-31T09:51:37.679Z,58.30
2018-08-31T09:54:09.831Z,57.80
2018-08-31T09:56:40.089Z,53.40
2018-08-31T09:59:16.277Z,48.50
2018-08-31T10:01:52.213Z,47.60
2018-08-31T10:04:47.513Z,46.20
2018-08-31T10:07:20.759Z,45.80
2018-08-31T10:09:52.361Z,44.50
2018-08-31T10:12:22.351Z,46.40
2018-08-31T10:14:51.727Z,48.00
2018-08-31T10:17:21.105Z,48.10
2018-08-31T10:23:00.182Z,47.50
2018-08-31T10:25:32.995Z,47.70
2018-08-31T10:28:05.075Z,46.50
2018-08-31T10:30:36.084Z,46.70
2018-08-31T10:33:07.024Z,48.50
2018-08-31T10:35:38.171Z,48.50
2018-08-31T10:38:08.378Z,46.50
2018-08-31T10:40:43.094Z,45.30
2018-08-31T10:43:19.411Z,45.00
2018-08-31T10:45:49.004Z,45.40
2018-08-31T10:48:21.256Z,44.40
2018-08-31T10:50:52.064Z,42.90
2018-08-31T10:53:21.736Z,42.40
2018-08-31T10:55:52.620Z,43.30
2018-08-31T10:58:33.320Z,44.00
2018-08-31T11:01:04.197Z,46.00
2018-08-31T11:03:34.032Z,46.10
2018-08-31T11:06:05.946Z,46.10
2018-08-31T11:08:43.095Z,43.70
2018-08-31T11:11:15.296Z,40.40
2018-08-31T11:13:49.585Z,40.90
2018-08-31T11:16:21.599Z,41.00
2018-08-31T11:18:52.947Z,38.30
2018-08-31T11:21:22.713Z,38.30
2018-08-31T11:24:04.486Z,40.90
2018-08-31T11:26:37.268Z,44.00
2018-08-31T11:29:08.154Z,46.30
2018-08-31T11:31:43.537Z,45.40
2018-08-31T11:34:15.597Z,41.80
2018-08-31T11:36:52.483Z,39.40
2018-08-31T11:39:22.998Z,37.60
2018-08-31T11:42:11.240Z,35.10
2018-08-31T11:44:41.338Z,36.00
2018-08-31T11:47:13.442Z,38.00
2018-08-31T11:49:43.933Z,38.30
2018-08-31T11:52:16.800Z,39.50
2018-08-31T11:54:47.472Z,37.70
2018-08-31T11:57:19.696Z,36.10
2018-08-31T11:59:50.896Z,35.60
2018-08-31T12:02:21.174Z,33.20
2018-08-31T12:04:52.615Z,31.50
2018-08-31T12:07:24.475Z,30.20
2018-08-31T12:10:22.776Z,30.10
2018-08-31T12:12:58.589Z,30.00
2018-08-31T12:15:29.431Z,29.40
2018-08-31T12:18:00.091Z,29.40
2018-08-31T12:20:31.743Z,29.50
2018-08-31T12:23:25.268Z,30.50
2018-08-31T12:25:56.733Z,32.00
2018-08-31T12:28:45.180Z,35.60
2018-08-31T12:31:16.698Z,37.70
2018-08-31T12:34:06.544Z,39.40
2018-08-31T12:36:42.225Z,39.90
2018-08-31T12:39:13.267Z,40.70
2018-08-31T12:41:44.904Z,41.30
2018-08-31T12:44:21.304Z,41.40
2018-08-31T12:47:10.555Z,40.70
2018-08-31T12:49:42.975Z,39.90
2018-08-31T12:52:13.357Z,39.50
2018-08-31T12:54:44.204Z,39.10
2018-08-31T12:57:16.087Z,39.80
2018-08-31T12:59:52.010Z,39.40
2018-08-31T13:02:26.511Z,40.30
2018-08-31T13:04:56.776Z,41.10
2018-08-31T13:07:27.159Z,40.60
2018-08-31T13:09:58.256Z,38.70
2018-08-31T13:12:32.368Z,36.60
2018-08-31T13:15:06.482Z,35.60
2018-08-31T13:17:38.806Z,34.30
2018-08-31T13:23:24.744Z,32.60
2018-08-31T13:25:56.357Z,33.20
2018-08-31T13:28:28.416Z,33.00
2018-08-31T13:31:08.528Z,32.60
2018-08-31T13:33:50.437Z,32.70
2018-08-31T13:36:20.340Z,33.00
2018-08-31T13:38:52.162Z,32.90
2018-08-31T13:41:23.228Z,33.30
2018-08-31T13:43:54.561Z,33.60
2018-08-31T13:46:25.592Z,33.90
2018-08-31T13:48:57.403Z,35.30
2018-08-31T13:51:27.580Z,36.60
2018-08-31T13:54:02.349Z,37.00
2018-08-31T13:56:36.658Z,37.10
2018-08-31T13:59:08.623Z,36.90
2018-08-31T14:01:41.849Z,38.10
2018-08-31T14:04:18.592Z,39.80
2018-08-31T14:06:49.177Z,40.70
2018-08-31T14:09:20.675Z,40.90
2018-08-31T14:11:52.169Z,41.10
2018-08-31T14:14:22.858Z,42.00
2018-08-31T14:16:52.570Z,42.90
2018-08-31T14:19:25.206Z,41.90
2018-08-31T14:21:56.209Z,41.40
2018-08-31T14:24:26.633Z,42.50
2018-08-31T14:26:56.358Z,43.40
2018-08-31T14:29:27.757Z,44.20
2018-08-31T14:32:07.459Z,44.40
2018-08-31T14:34:48.524Z,43.80
2018-08-31T14:37:20.201Z,43.90
2018-08-31T14:40:00.743Z,43.50
2018-08-31T14:42:51.779Z,42.90
2018-08-31T14:45:34.047Z,42.40
2018-08-31T14:48:11.612Z,42.40
2018-08-31T14:50:43.283Z,42.60
2018-08-31T14:53:17.606Z,42.80
2018-08-31T14:55:49.337Z,42.80
2018-08-31T14:58:31.107Z,42.70
2018-08-31T15:01:01.325Z,42.20
2018-08-31T15:03:34.382Z,42.00
2018-08-31T15:06:06.458Z,41.90
2018-08-31T15:08:36.654Z,41.70
2018-08-31T15:11:06.731Z,41.60
2018-08-31T15:13:37.243Z,41.10
2018-08-31T15:16:09.306Z,40.90
2018-08-31T15:18:40.771Z,41.50
2018-08-31T15:24:44.501Z,42.50
2018-08-31T15:27:20.584Z,42.70
2018-08-31T15:30:00.465Z,42.30
2018-08-31T15:32:49.207Z,42.50
2018-08-31T15:35:21.233Z,42.90
2018-08-31T15:38:08.063Z,43.90
2018-08-31T15:41:02.947Z,44.80
2018-08-31T15:43:38.963Z,44.50
2018-08-31T15:46:42.636Z,44.60
2018-08-31T15:52:13.967Z,43.20
2018-08-31T15:55:11.207Z,43.60
2018-08-31T15:57:43.838Z,43.60
2018-08-31T16:00:17.672Z,43.60
2018-08-31T16:02:52.096Z,43.60
2018-08-31T16:05:28.437Z,43.40
2018-08-31T16:11:44.833Z,44.90
2018-08-31T16:14:18.046Z,45.20
2018-08-31T16:16:51.827Z,45.70
2018-08-31T16:19:26.445Z,46.20
2018-08-31T16:21:57.536Z,46.70
2018-08-31T16:24:32.788Z,46.40
2018-08-31T16:27:05.444Z,45.80
2018-08-31T16:29:37.496Z,45.70
2018-08-31T16:32:24.513Z,45.80
2018-08-31T16:35:08.226Z,46.30
2018-08-31T16:37:51.272Z,47.10
2018-08-31T16:40:28.573Z,47.30
2018-08-31T16:43:02.458Z,47.50
2018-08-31T16:45:59.442Z,47.70
2018-08-31T16:48:33.868Z,48.00
2018-08-31T16:51:06.003Z,47.70
2018-08-31T16:53:39.750Z,47.40
2018-08-31T16:56:11.460Z,47.50
2018-08-31T16:58:42.045Z,47.70
2018-08-31T17:01:15.283Z,48.40
2018-08-31T17:03:49.132Z,48.40
2018-08-31T17:06:24.989Z,48.20
2018-08-31T17:09:01.083Z,48.20
2018-08-31T17:11:32.401Z,48.30
2018-08-31T17:14:03.785Z,48.70
2018-08-31T17:16:47.187Z,48.80
2018-08-31T17:19:19.480Z,48.20
2018-08-31T17:21:50.196Z,47.10
2018-08-31T17:24:30.959Z,46.70
2018-08-31T17:27:07.836Z,46.20
2018-08-31T17:29:45.481Z,45.90
2018-08-31T17:32:23.009Z,46.50
2018-08-31T17:34:59.204Z,47.00
2018-08-31T17:37:33.485Z,48.00
2018-08-31T17:40:05.107Z,48.20
2018-08-31T17:42:39.587Z,49.50
2018-08-31T17:45:15.924Z,49.80
2018-08-31T17:48:11.099Z,50.60
2018-08-31T17:50:49.256Z,50.70
2018-08-31T17:53:23.250Z,51.40
2018-08-31T17:56:12.697Z,52.20
2018-08-31T17:58:49.125Z,52.70
2018-08-31T18:01:28.087Z,54.00
2018-08-31T18:04:01.860Z,54.60
2018-08-31T18:06:34.215Z,54.60
2018-08-31T18:09:09.869Z,54.80
2018-08-31T18:11:48.889Z,55.60
2018-08-31T18:14:38.698Z,55.00
2018-08-31T18:17:12.400Z,54.80
2018-08-31T18:19:44.215Z,55.10
2018-08-31T18:22:18.009Z,55.40
2018-08-31T18:24:49.695Z,56.50
2018-08-31T18:27:31.149Z,55.90
2018-08-31T18:30:02.973Z,55.70
2018-08-31T18:32:40.891Z,55.70
2018-08-31T18:38:09.438Z,56.40
2018-08-31T18:41:26.741Z,57.00
2018-08-31T18:44:04.827Z,57.80
2018-08-31T18:46:41.535Z,56.40
2018-08-31T18:49:29.385Z,55.80
2018-08-31T18:52:01.912Z,55.80
2018-08-31T18:54:50.634Z,56.60
2018-08-31T18:57:32.150Z,56.70
2018-08-31T19:00:07.793Z,57.40
2018-08-31T19:02:56.311Z,57.90
2018-08-31T19:05:51.454Z,57.10
2018-08-31T19:08:29.081Z,57.50
2018-08-31T19:11:22.700Z,56.40
2018-08-31T19:17:29.327Z,57.10
2018-08-31T19:20:14.755Z,56.40
2018-08-31T19:22:47.832Z,58.20
2018-08-31T19:25:34.349Z,58.40
2018-08-31T19:28:11.293Z,57.70
2018-08-31T19:30:54.292Z,57.10
2018-08-31T19:33:42.788Z,57.40
2018-08-31T19:39:45.761Z,58.40
2018-08-31T19:42:23.623Z,57.20
2018-08-31T19:48:29.726Z,58.30
2018-08-31T19:51:04.839Z,59.50
2018-08-31T19:53:44.090Z,59.80
2018-08-31T19:56:24.200Z,61.40
2018-08-31T20:02:12.126Z,60.50
2018-08-31T20:08:01.347Z,63.00
2018-08-31T20:10:55.813Z,62.70
2018-08-31T20:19:37.821Z,63.30
2018-08-31T20:22:49.080Z,65.10
2018-08-31T20:25:44.311Z,65.80
2018-08-31T20:28:22.677Z,67.80
2018-08-31T20:31:02.128Z,68.10
2018-08-31T20:33:49.648Z,67.70
2018-08-31T20:37:00.049Z,69.40
2018-08-31T20:39:53.529Z,69.00
2018-08-31T20:42:42.680Z,69.70
2018-08-31T20:45:30.731Z,69.50
2018-08-31T20:48:02.450Z,68.80
2018-08-31T20:50:38.607Z,70.10
2018-08-31T20:53:10.565Z,70.60
2018-08-31T20:55:41.473Z,72.10
2018-08-31T20:58:25.122Z,71.40
2018-08-31T21:01:03.030Z,71.80
2018-08-31T21:03:38.911Z,72.80
2018-08-31T21:06:31.155Z,72.30
2018-08-31T21:09:24.125Z,72.10
2018-08-31T21:12:05.369Z,71.70
2018-08-31T21:15:09.821Z,71.40
2018-08-31T21:17:51.684Z,71.50
2018-08-31T21:20:31.899Z,71.70
2018-08-31T21:23:05.207Z,73.90
2018-08-31T21:25:54.250Z,72.70
2018-08-31T21:28:33.370Z,73.70
2018-08-31T21:31:46.310Z,72.40
2018-08-31T21:34:24.362Z,72.80
2018-08-31T21:37:21.821Z,73.50
2018-08-31T21:40:13.342Z,73.40
2018-08-31T21:46:11.720Z,74.20
2018-08-31T21:48:44.034Z,74.90
2018-08-31T21:51:16.590Z,77.50
2018-08-31T21:53:50.513Z,76.70
2018-08-31T21:56:21.615Z,76.40
2018-08-31T21:58:57.887Z,78.00
2018-08-31T22:01:36.225Z,78.50
2018-08-31T22:04:14.739Z,78.00
2018-08-31T22:06:59.592Z,78.70
2018-08-31T22:09:30.597Z,78.40
2018-08-31T22:12:04.067Z,79.20
2018-08-31T22:14:37.110Z,79.20
2018-08-31T22:17:08.739Z,79.30
2018-08-31T22:19:40.527Z,80.00
2018-08-31T22:25:02.876Z,78.70
2018-08-31T22:27:56.261Z,80.80
2018-08-31T22:30:48.395Z,79.00
2018-08-31T22:34:07.478Z,79.50
2018-08-31T22:37:05.394Z,81.00
2018-08-31T22:39:53.502Z,83.50
2018-08-31T22:42:54.512Z,84.70
2018-08-31T22:45:57.411Z,86.20
2018-08-31T22:48:41.682Z,88.40
2018-08-31T22:51:13.029Z,89.00
2018-08-31T22:53:43.195Z,90.50
2018-08-31T22:56:16.211Z,90.40
2018-08-31T22:58:46.589Z,90.60
2018-08-31T23:01:18.190Z,92.00
2018-08-31T23:04:01.270Z,91.90
2018-08-31T23:06:45.259Z,91.90
2018-08-31T23:09:17.420Z,92.30
2018-08-31T23:11:53.693Z,92.90
2018-08-31T23:14:27.965Z,93.20
2018-08-31T23:19:59.211Z,93.80
2018-08-31T23:22:42.680Z,94.50
2018-08-31T23:25:26.445Z,94.80
2018-08-31T23:28:04.075Z,95.90
2018-08-31T23:30:40.146Z,96.30
2018-08-31T23:33:18.956Z,96.70
2018-08-31T23:35:53.282Z,97.20
2018-08-31T23:38:28.638Z,98.00
2018-08-31T23:41:02.440Z,98.80
2018-08-31T23:43:41.870Z,98.70
2018-08-31T23:46:16.425Z,99.60
2018-08-31T23:51:46.328Z,99.90
2018-08-31T23:54:22.997Z,99.90
2018-08-31T23:56:56.502Z,99.90
2018-08-31T23:59:28.403Z,99.90
